Time;durP1;ratioP1;P1;durP2;ratioP2;P2;SDS_P1;SDS_P2;PMS_P1;PMS_P2;Temp;Humidity;BMP_temperature;BMP_pressure;BME280_temperature;BME280_humidity;BME280_pressure;Samples;Min_cycle;Max_cycle;Signal;HPM_P1;HPM_P2
2021/03/08 00:00:32;;;;;;;23.80;14.68;;;;;;;1.77;100.00;101141.84;4932953;28;20768;-89
2021/03/08 00:03:01;;;;;;;24.63;12.18;;;;;;;1.63;100.00;101136.00;4947972;28;20058;-90
2021/03/08 00:05:28;;;;;;;24.55;12.98;;;;;;;1.61;100.00;101137.75;4943911;28;20102;-88
2021/03/08 00:07:55;;;;;;;27.90;12.20;;;;;;;1.50;100.00;101136.16;4929528;29;20080;-88
2021/03/08 00:10:21;;;;;;;19.20;10.95;;;;;;;1.47;100.00;101143.97;4985404;28;20054;-89
2021/03/08 00:12:49;;;;;;;22.15;10.63;;;;;;;1.45;100.00;101137.97;4944757;29;20098;-89
2021/03/08 00:15:17;;;;;;;23.33;12.77;;;;;;;1.53;100.00;101148.22;4928572;29;20055;-88
2021/03/08 00:17:44;;;;;;;21.73;11.60;;;;;;;1.50;100.00;101153.47;4943363;29;20055;-88
2021/03/08 00:20:14;;;;;;;18.25;10.88;;;;;;;1.63;100.00;101148.97;4949335;29;20516;-88
2021/03/08 00:22:42;;;;;;;19.08;11.00;;;;;;;1.69;100.00;101159.25;4962258;28;20051;-89
2021/03/08 00:25:12;;;;;;;19.38;11.90;;;;;;;1.55;100.00;101156.84;4942606;29;20044;-89
2021/03/08 00:27:39;;;;;;;22.23;11.57;;;;;;;1.43;100.00;101164.78;4950156;29;20123;-89
2021/03/08 00:30:07;;;;;;;24.73;11.52;;;;;;;1.60;100.00;101164.56;4973991;29;20384;-89
2021/03/08 00:32:34;;;;;;;21.05;11.38;;;;;;;1.74;100.00;101163.50;4940373;29;20538;-89
2021/03/08 00:35:03;;;;;;;18.92;10.30;;;;;;;1.71;100.00;101165.28;4942657;28;20401;-89
2021/03/08 00:37:31;;;;;;;19.15;8.95;;;;;;;1.77;100.00;101154.81;4955918;28;20115;-89
2021/03/08 00:40:06;;;;;;;22.17;10.40;;;;;;;1.82;100.00;101155.59;4946494;29;20540;-88
2021/03/08 00:42:33;;;;;;;23.38;10.40;;;;;;;1.89;100.00;101158.97;4955959;29;20134;-88
2021/03/08 00:45:10;;;;;;;17.15;9.60;;;;;;;1.80;100.00;101156.50;4914986;29;20050;-88
2021/03/08 00:47:37;;;;;;;18.95;11.18;;;;;;;1.74;100.00;101154.84;4944514;29;20469;-89
2021/03/08 00:50:06;;;;;;;20.73;10.13;;;;;;;1.67;100.00;101164.47;4926793;29;20641;-89
2021/03/08 00:52:33;;;;;;;20.00;10.88;;;;;;;1.54;100.00;101160.34;4912915;29;20055;-90
2021/03/08 00:55:01;;;;;;;21.85;11.00;;;;;;;1.56;100.00;101161.16;4927486;28;20047;-90
2021/03/08 00:57:28;;;;;;;18.70;9.98;;;;;;;1.62;100.00;101163.69;4924589;29;20043;-89
2021/03/08 00:59:54;;;;;;;21.65;11.25;;;;;;;1.47;100.00;101171.66;4920589;28;20075;-88
2021/03/08 01:02:21;;;;;;;19.17;9.63;;;;;;;1.38;100.00;101162.25;4945302;29;20150;-89
2021/03/08 01:04:49;;;;;;;21.15;11.52;;;;;;;1.40;100.00;101167.44;4913017;28;20043;-89
2021/03/08 01:07:15;;;;;;;22.67;10.85;;;;;;;1.54;100.00;101162.94;4953678;29;20078;-88
2021/03/08 01:09:43;;;;;;;16.48;9.15;;;;;;;1.85;100.00;101159.91;4919616;29;20059;-90
2021/03/08 01:12:12;;;;;;;15.10;9.43;;;;;;;1.86;100.00;101162.47;4960260;28;20030;-90
2021/03/08 01:14:39;;;;;;;16.52;9.25;;;;;;;1.87;99.77;101151.22;4953415;28;20034;-89
2021/03/08 01:17:06;;;;;;;20.63;10.75;;;;;;;1.49;100.00;101164.72;4934066;29;20082;-90
2021/03/08 01:19:34;;;;;;;22.08;10.30;;;;;;;1.35;100.00;101154.53;4915274;29;20110;-90
2021/03/08 01:22:01;;;;;;;16.85;10.23;;;;;;;1.42;100.00;101158.75;4943941;29;20138;-89
2021/03/08 01:24:31;;;;;;;24.13;10.60;;;;;;;1.38;100.00;101158.81;4941162;29;20347;-89
2021/03/08 01:26:58;;;;;;;20.17;9.80;;;;;;;1.62;100.00;101162.81;4916259;29;20046;-91
2021/03/08 01:29:25;;;;;;;17.80;8.88;;;;;;;1.73;100.00;101158.34;4935090;29;20055;-90
2021/03/08 01:31:52;;;;;;;18.92;9.18;;;;;;;1.56;99.54;101163.75;4940929;29;20134;-89
2021/03/08 01:34:19;;;;;;;17.00;8.65;;;;;;;1.44;100.00;101169.09;4946984;28;20127;-89
2021/03/08 01:36:46;;;;;;;19.33;8.85;;;;;;;1.39;100.00;101165.69;4946307;29;20051;-89
2021/03/08 01:39:13;;;;;;;17.52;9.07;;;;;;;1.23;100.00;101175.41;4941782;29;20318;-90
2021/03/08 01:41:40;;;;;;;21.25;10.23;;;;;;;1.26;100.00;101175.34;4938891;29;20051;-89
2021/03/08 01:44:07;;;;;;;24.73;9.93;;;;;;;1.15;100.00;101172.03;4930770;29;20143;-89
2021/03/08 01:46:33;;;;;;;18.63;8.77;;;;;;;1.13;100.00;101172.06;4962905;28;20052;-89
2021/03/08 01:49:00;;;;;;;18.73;9.38;;;;;;;1.34;100.00;101173.53;4969516;28;20090;-89
2021/03/08 01:51:27;;;;;;;18.33;8.10;;;;;;;1.15;100.00;101174.63;4927173;29;20069;-89
2021/03/08 01:53:55;;;;;;;18.95;8.85;;;;;;;1.13;100.00;101177.25;4974371;29;20031;-89
2021/03/08 01:56:22;;;;;;;17.17;8.43;;;;;;;1.07;100.00;101172.13;4976622;28;20077;-89
2021/03/08 01:58:49;;;;;;;18.17;8.40;;;;;;;1.01;100.00;101162.69;4957163;29;20055;-89
2021/03/08 02:01:16;;;;;;;17.65;8.50;;;;;;;1.04;100.00;101163.50;5025017;23;20125;-82
2021/03/08 02:03:43;;;;;;;17.90;9.43;;;;;;;1.01;100.00;101172.19;5007992;28;20034;-80
2021/03/08 02:06:10;;;;;;;18.25;8.70;;;;;;;0.74;100.00;101170.75;5018501;28;20141;-79
2021/03/08 02:08:38;;;;;;;22.85;10.25;;;;;;;0.56;100.00;101168.34;5020850;28;20101;-81
2021/03/08 02:11:06;;;;;;;20.17;9.38;;;;;;;0.48;100.00;101177.03;5015205;28;20113;-81
2021/03/08 02:13:49;;;;;;;16.80;8.32;;;;;;;0.41;100.00;101180.56;4980624;28;20479;-82
2021/03/08 02:16:25;;;;;;;15.43;9.50;;;;;;;0.35;100.00;101188.34;4979237;28;20097;-82
2021/03/08 02:19:00;;;;;;;16.48;8.95;;;;;;;0.28;100.00;101186.72;4999065;28;20058;-81
2021/03/08 02:22:05;;;;;;;16.80;8.82;;;;;;;0.22;100.00;101184.13;4967913;28;20057;-80
2021/03/08 02:25:04;;;;;;;23.20;9.88;;;;;;;0.12;100.00;101183.34;4990711;28;20510;-82
2021/03/08 02:27:43;;;;;;;21.52;8.90;;;;;;;0.09;100.00;101188.56;4994634;28;20050;-79
2021/03/08 02:30:48;;;;;;;19.75;8.90;;;;;;;-0.02;100.00;101195.53;4991953;28;20042;-78
2021/03/08 02:33:21;;;;;;;26.10;9.38;;;;;;;-0.18;100.00;101202.53;4966823;28;20137;-80
2021/03/08 02:35:51;;;;;;;23.50;9.48;;;;;;;-0.20;100.00;101199.09;5008488;28;20049;-78
2021/03/08 02:38:22;;;;;;;18.98;9.32;;;;;;;-0.26;100.00;101199.13;4994152;28;20343;-80
2021/03/08 02:40:58;;;;;;;27.38;9.80;;;;;;;-0.30;100.00;101194.84;4985357;28;20066;-79
2021/03/08 02:43:36;;;;;;;14.40;8.98;;;;;;;-0.33;100.00;101200.03;5004151;28;20042;-81
2021/03/08 02:46:10;;;;;;;17.17;8.75;;;;;;;-0.39;100.00;101197.47;4991054;28;20125;-79
2021/03/08 02:48:39;;;;;;;16.88;8.95;;;;;;;-0.45;100.00;101203.53;4995509;28;20042;-82
2021/03/08 02:51:06;;;;;;;16.55;7.80;;;;;;;-0.51;100.00;101201.81;5001098;28;20046;-81
2021/03/08 02:53:36;;;;;;;17.10;8.43;;;;;;;-0.57;100.00;101195.81;4990323;28;20088;-81
2021/03/08 02:56:07;;;;;;;16.92;6.88;;;;;;;-0.55;100.00;101200.09;4970592;28;20066;-78
2021/03/08 02:58:35;;;;;;;13.60;6.32;;;;;;;-0.64;100.00;101199.28;4989155;28;20023;-79
2021/03/08 03:01:08;;;;;;;17.63;7.75;;;;;;;-0.78;100.00;101210.53;4979908;28;20054;-81
2021/03/08 03:03:40;;;;;;;15.15;4.95;;;;;;;-0.81;100.00;101201.94;5006494;28;20046;-81
2021/03/08 03:06:07;;;;;;;14.18;6.00;;;;;;;-0.83;100.00;101207.09;4977295;28;20074;-81
2021/03/08 03:08:34;;;;;;;15.82;5.13;;;;;;;-0.92;100.00;101201.97;4986516;28;20062;-81
2021/03/08 03:11:01;;;;;;;7.57;5.43;;;;;;;-0.96;100.00;101204.56;4988795;28;20085;-80
2021/03/08 03:13:28;;;;;;;17.60;6.10;;;;;;;-0.97;100.00;101210.59;4973320;28;20038;-79
2021/03/08 03:15:55;;;;;;;7.85;4.53;;;;;;;-0.97;100.00;101213.19;4980480;28;20138;-80
2021/03/08 03:18:24;;;;;;;12.32;5.00;;;;;;;-1.07;100.00;101223.53;4975101;28;20475;-83
2021/03/08 03:20:51;;;;;;;14.18;5.55;;;;;;;-1.12;100.00;101227.00;4986026;28;20073;-82
2021/03/08 03:23:21;;;;;;;15.15;4.63;;;;;;;-1.18;100.00;101220.09;4994131;28;20061;-80
2021/03/08 03:25:49;;;;;;;11.40;5.25;;;;;;;-1.27;100.00;101227.84;5030440;28;20076;-79
2021/03/08 03:28:16;;;;;;;18.67;5.25;;;;;;;-1.34;100.00;101218.41;5008801;28;20039;-81
2021/03/08 03:30:44;;;;;;;13.50;5.10;;;;;;;-1.34;100.00;101224.44;5006399;28;20035;-81
2021/03/08 03:33:12;;;;;;;13.60;5.22;;;;;;;-1.30;100.00;101228.75;4974206;28;20077;-80
2021/03/08 03:35:39;;;;;;;15.75;4.90;;;;;;;-1.40;100.00;101234.75;4990960;28;20261;-81
2021/03/08 03:38:07;;;;;;;17.75;5.93;;;;;;;-1.45;100.00;101236.47;4985346;28;20106;-81
2021/03/08 03:40:35;;;;;;;17.00;5.30;;;;;;;-1.44;100.00;101238.22;4985889;28;20062;-82
2021/03/08 03:43:03;;;;;;;11.93;4.63;;;;;;;-1.44;100.00;101247.66;5020751;28;20133;-80
2021/03/08 03:45:30;;;;;;;13.60;4.88;;;;;;;-1.48;100.00;101248.53;4988309;28;20105;-80
2021/03/08 03:47:56;;;;;;;12.07;4.65;;;;;;;-1.41;100.00;101255.41;4986644;28;20096;-80
2021/03/08 03:50:24;;;;;;;14.25;4.80;;;;;;;-1.58;100.00;101256.25;5008922;28;20045;-81
2021/03/08 03:52:51;;;;;;;12.52;4.82;;;;;;;-1.60;100.00;101257.13;5008215;28;20106;-80
2021/03/08 03:55:20;;;;;;;15.02;5.65;;;;;;;-1.69;100.00;101257.97;5002702;28;20070;-82
2021/03/08 03:57:53;;;;;;;16.45;5.22;;;;;;;-1.76;100.00;101258.81;4965314;28;20046;-82
2021/03/08 04:00:23;;;;;;;17.52;5.75;;;;;;;-1.83;100.00;101259.69;4993278;28;20161;-80
2021/03/08 04:02:58;;;;;;;22.25;5.50;;;;;;;-1.87;100.00;101271.72;4965291;28;20055;-81
2021/03/08 04:05:25;;;;;;;18.38;6.03;;;;;;;-1.82;100.00;101271.72;5000887;28;20061;-80
2021/03/08 04:07:54;;;;;;;14.65;5.03;;;;;;;-1.86;100.00;101269.97;4991071;28;20034;-82
2021/03/08 04:10:22;;;;;;;11.85;4.85;;;;;;;-1.92;100.00;101273.41;4996468;28;20046;-80
2021/03/08 04:12:53;;;;;;;19.40;6.05;;;;;;;-2.00;100.00;101275.13;4974836;28;20133;-82
2021/03/08 04:15:23;;;;;;;23.23;4.75;;;;;;;-1.93;100.00;101276.88;4996479;28;20628;-82
2021/03/08 04:17:50;;;;;;;15.23;4.88;;;;;;;-1.97;100.00;101285.44;4990101;28;20098;-79
2021/03/08 04:20:20;;;;;;;14.07;5.30;;;;;;;-2.01;100.00;101281.13;4996869;28;20054;-82
2021/03/08 04:22:51;;;;;;;15.32;4.78;;;;;;;-2.04;100.00;101284.56;4993506;28;20073;-80
2021/03/08 04:25:19;;;;;;;17.38;5.95;;;;;;;-2.06;100.00;101288.88;4996156;28;20026;-78
2021/03/08 04:27:48;;;;;;;13.25;4.35;;;;;;;-2.09;100.00;101290.56;4993415;28;20061;-80
2021/03/08 04:30:16;;;;;;;16.92;4.97;;;;;;;-2.11;100.00;101294.88;5008747;28;20047;-82
2021/03/08 04:32:44;;;;;;;17.50;4.97;;;;;;;-2.16;100.00;101297.44;4985589;28;20066;-79
2021/03/08 04:35:12;;;;;;;20.88;6.57;;;;;;;-2.23;100.00;101303.41;4973049;28;20038;-81
2021/03/08 04:37:40;;;;;;;14.35;4.97;;;;;;;-2.30;100.00;101312.84;4987956;28;20114;-80
2021/03/08 04:40:08;;;;;;;13.45;4.47;;;;;;;-2.32;100.00;101314.53;4959267;28;20537;-82
2021/03/08 04:42:36;;;;;;;15.15;5.32;;;;;;;-2.31;100.00;101317.97;4981032;28;20061;-82
2021/03/08 04:45:04;;;;;;;15.32;4.97;;;;;;;-2.31;100.00;101305.94;4989036;28;20055;-83
2021/03/08 04:47:31;;;;;;;15.52;4.85;;;;;;;-2.32;100.00;101316.25;4956548;28;20047;-83
2021/03/08 04:49:59;;;;;;;14.50;5.45;;;;;;;-2.42;100.00;101315.34;4996509;28;20101;-80
2021/03/08 04:52:26;;;;;;;16.38;5.10;;;;;;;-2.47;100.00;101309.31;4991731;28;20050;-80
2021/03/08 04:54:53;;;;;;;13.60;5.10;;;;;;;-2.51;100.00;101317.03;5014937;28;20058;-80
2021/03/08 04:57:22;;;;;;;14.73;4.70;;;;;;;-2.60;100.00;101315.25;5010363;28;20038;-81
2021/03/08 04:59:50;;;;;;;15.75;4.72;;;;;;;-2.54;100.00;101317.84;5017539;28;20061;-81
2021/03/08 05:02:29;;;;;;;11.50;5.00;;;;;;;-2.55;100.00;101319.56;4987422;28;20050;-81
2021/03/08 05:04:57;;;;;;;20.75;5.97;;;;;;;-2.55;100.00;101317.00;4960990;28;20534;-81
2021/03/08 05:07:25;;;;;;;12.85;5.00;;;;;;;-2.55;100.00;101317.00;4988438;28;20073;-77
2021/03/08 05:09:54;;;;;;;12.48;4.63;;;;;;;-2.62;100.00;101328.13;4975294;28;20070;-83
2021/03/08 05:12:22;;;;;;;13.13;4.45;;;;;;;-2.69;100.00;101326.38;4987741;28;20117;-82
2021/03/08 05:14:50;;;;;;;13.85;4.65;;;;;;;-2.72;100.00;101325.47;4983755;28;20057;-82
2021/03/08 05:17:17;;;;;;;15.63;5.40;;;;;;;-2.72;100.00;101323.75;5000001;28;20526;-81
2021/03/08 05:19:45;;;;;;;9.05;3.83;;;;;;;-2.77;100.00;101325.44;4988684;28;20133;-79
2021/03/08 05:22:16;;;;;;;12.55;4.70;;;;;;;-2.77;100.00;101338.34;4993407;28;20049;-82
2021/03/08 05:24:47;;;;;;;16.17;4.75;;;;;;;-2.84;100.00;101342.59;4979369;28;20190;-80
2021/03/08 05:27:15;;;;;;;10.90;4.20;;;;;;;-2.88;100.00;101339.94;4965271;28;20066;-81
2021/03/08 05:29:43;;;;;;;16.13;5.38;;;;;;;-2.90;100.00;101344.25;4980569;28;20038;-81
2021/03/08 05:32:22;;;;;;;16.60;4.82;;;;;;;-2.83;100.00;101348.59;4981199;28;20137;-81
2021/03/08 05:34:49;;;;;;;20.65;5.70;;;;;;;-2.90;100.00;101354.56;4986999;28;20050;-81
2021/03/08 05:37:17;;;;;;;13.65;5.72;;;;;;;-2.93;100.00;101362.25;4987876;28;20054;-82
2021/03/08 05:39:45;;;;;;;13.95;5.50;;;;;;;-2.86;100.00;101358.88;4983155;28;20133;-79
2021/03/08 05:42:13;;;;;;;10.07;5.22;;;;;;;-2.81;100.00;101362.34;4998243;28;20058;-82
2021/03/08 05:45:06;;;;;;;13.05;4.28;;;;;;;-2.93;100.00;101364.81;5005665;28;20046;-80
2021/03/08 05:47:57;;;;;;;15.10;4.50;;;;;;;-2.88;100.00;101371.75;4965660;28;20073;-81
2021/03/08 05:50:37;;;;;;;14.88;5.15;;;;;;;-2.81;100.00;101367.50;5007731;28;20060;-81
2021/03/08 05:53:26;;;;;;;19.38;5.07;;;;;;;-2.84;100.00;101381.25;4984721;28;20141;-80
2021/03/08 05:56:23;;;;;;;15.82;4.43;;;;;;;-2.80;100.00;101376.94;4991363;28;20064;-82
2021/03/08 05:59:07;;;;;;;11.35;4.28;;;;;;;-2.74;100.00;101389.03;4984168;28;20062;-83
2021/03/08 06:02:01;;;;;;;8.15;4.43;;;;;;;-2.77;100.00;101389.00;4999322;28;20043;-82
2021/03/08 06:05:11;;;;;;;13.35;4.25;;;;;;;-2.65;100.00;101392.56;4972114;28;20380;-82
2021/03/08 06:08:08;;;;;;;14.75;4.18;;;;;;;-2.64;100.00;101401.13;4978799;28;20402;-81
2021/03/08 06:10:36;;;;;;;17.20;4.80;;;;;;;-2.59;100.00;101400.31;4992460;28;20041;-83
2021/03/08 06:13:09;;;;;;;12.50;4.15;;;;;;;-2.48;100.00;101405.53;4982234;28;20070;-83
2021/03/08 06:15:37;;;;;;;9.55;4.85;;;;;;;-2.28;100.00;101399.66;4982782;28;20042;-82
2021/03/08 06:18:07;;;;;;;9.77;4.10;;;;;;;-1.95;100.00;101409.31;5009639;28;20043;-79
2021/03/08 06:20:35;;;;;;;9.90;3.75;;;;;;;-1.57;99.24;101414.63;4987669;28;20113;-78
2021/03/08 06:23:03;;;;;;;9.43;3.55;;;;;;;-1.25;97.28;101422.47;4996541;28;20070;-80
2021/03/08 06:25:34;;;;;;;11.07;3.97;;;;;;;-1.40;95.89;101435.31;5013467;28;20126;-81
2021/03/08 06:28:01;;;;;;;11.98;3.88;;;;;;;-1.21;94.72;101426.78;4994479;28;20089;-82
2021/03/08 06:30:28;;;;;;;6.90;3.28;;;;;;;-1.21;94.57;101437.13;4999891;28;20080;-81
2021/03/08 06:32:55;;;;;;;11.13;3.97;;;;;;;0.20;91.19;101434.47;4999991;28;20031;-83
2021/03/08 06:35:22;;;;;;;9.57;3.13;;;;;;;1.48;83.88;101425.91;5002637;28;20043;-84
2021/03/08 06:37:50;;;;;;;7.85;2.85;;;;;;;2.96;76.24;101441.50;4982489;28;20042;-82
2021/03/08 06:40:17;;;;;;;8.07;2.85;;;;;;;3.39;74.08;101437.41;4997923;28;20030;-81
2021/03/08 06:42:45;;;;;;;9.43;2.13;;;;;;;2.82;74.56;101443.44;4988894;28;20054;-83
2021/03/08 06:45:12;;;;;;;7.90;2.40;;;;;;;3.72;68.97;101442.03;5005346;28;20042;-82
2021/03/08 06:47:39;;;;;;;6.53;2.38;;;;;;;3.11;70.40;101447.38;4987819;28;20037;-83
2021/03/08 06:54:19;;;;;;;6.82;2.38;;;;;;;4.96;63.66;101450.00;5010264;28;20042;-84
2021/03/08 06:56:47;;;;;;;7.03;2.50;;;;;;;6.33;59.71;101447.41;4998096;28;20054;-82
2021/03/08 06:59:14;;;;;;;6.53;2.55;;;;;;;5.19;61.12;101448.59;4999476;28;20054;-84
2021/03/08 07:01:42;;;;;;;8.07;2.40;;;;;;;6.50;58.54;101457.41;4973757;28;20035;-79
2021/03/08 07:04:16;;;;;;;5.63;2.40;;;;;;;7.19;53.71;101457.94;4994724;28;20452;-83
2021/03/08 07:06:57;;;;;;;5.20;2.15;;;;;;;7.75;51.99;101453.47;4995675;28;20042;-80
2021/03/08 07:09:24;;;;;;;5.97;2.28;;;;;;;5.84;56.20;101469.63;4991203;28;20073;-82
2021/03/08 07:12:11;;;;;;;6.68;2.20;;;;;;;4.98;60.02;101469.06;4981851;28;20403;-83
2021/03/08 07:14:39;;;;;;;8.15;2.72;;;;;;;4.06;63.38;101465.75;4996616;28;20045;-83
2021/03/08 07:17:35;;;;;;;6.28;2.17;;;;;;;4.23;63.90;101469.75;4980948;28;20176;-80
2021/03/08 07:20:12;;;;;;;8.52;2.40;;;;;;;4.51;62.81;101478.78;4990463;28;20034;-79
2021/03/08 07:23:10;;;;;;;11.63;2.38;;;;;;;5.83;58.90;101474.00;5000295;28;20050;-80
2021/03/08 07:25:48;;;;;;;9.10;2.50;;;;;;;9.57;48.83;101480.78;4981689;28;20110;-83
2021/03/08 07:28:42;;;;;;;5.78;2.40;;;;;;;10.38;45.10;101484.38;4973993;28;20102;-81
2021/03/08 07:31:39;;;;;;;4.07;1.83;;;;;;;11.83;41.63;101484.56;5013876;28;20058;-80
2021/03/08 07:34:13;;;;;;;4.65;2.15;;;;;;;12.65;39.37;101487.31;4998130;28;20073;-82
2021/03/08 07:36:43;;;;;;;5.53;3.05;;;;;;;12.77;37.68;101491.09;4996036;28;20073;-82
2021/03/08 07:39:16;;;;;;;3.67;1.83;;;;;;;13.88;35.53;101481.31;4965672;28;20122;-82
2021/03/08 07:41:55;;;;;;;6.68;2.17;;;;;;;12.81;37.72;101495.28;4993552;28;20050;-82
2021/03/08 07:44:24;;;;;;;5.07;2.35;;;;;;;15.12;33.70;101492.22;4988440;28;20137;-81
2021/03/08 07:46:55;;;;;;;8.50;3.63;;;;;;;13.64;35.13;101496.78;4985528;28;20578;-80
2021/03/08 07:49:34;;;;;;;5.72;2.55;;;;;;;12.44;36.90;101507.81;4989799;28;20073;-81
2021/03/08 07:52:06;;;;;;;4.88;2.55;;;;;;;13.83;34.87;101499.25;4965952;28;20059;-80
2021/03/08 07:54:59;;;;;;;8.75;2.38;;;;;;;14.43;33.84;101500.00;4990952;28;20581;-80
2021/03/08 07:57:28;;;;;;;7.45;2.35;;;;;;;14.32;33.74;101502.47;4973477;28;20046;-80
2021/03/08 07:59:55;;;;;;;5.03;2.55;;;;;;;14.57;33.39;101504.50;4990139;28;20038;-81
2021/03/08 08:02:22;;;;;;;7.07;2.67;;;;;;;11.79;37.38;101514.63;4990024;28;20058;-80
2021/03/08 08:05:02;;;;;;;4.18;1.85;;;;;;;15.31;32.42;101515.75;4992555;28;20062;-81
2021/03/08 08:07:33;;;;;;;4.95;2.08;;;;;;;14.49;33.13;101514.72;4972836;28;20054;-80
2021/03/08 08:10:04;;;;;;;4.93;2.40;;;;;;;11.97;37.73;101518.16;4990273;28;20050;-80
2021/03/08 08:12:34;;;;;;;5.00;2.65;;;;;;;13.09;36.02;101515.75;4977310;28;20733;-80
2021/03/08 08:15:03;;;;;;;6.78;2.22;;;;;;;8.73;42.60;101527.88;4981510;28;20056;-79
2021/03/08 08:17:34;;;;;;;4.47;2.03;;;;;;;12.27;37.04;101513.97;4980849;28;20047;-79
2021/03/08 08:20:06;;;;;;;4.85;2.33;;;;;;;13.25;35.05;101510.53;4997753;28;20058;-79
2021/03/08 08:22:34;;;;;;;5.60;2.10;;;;;;;14.11;32.88;101511.69;4966080;28;20073;-79
2021/03/08 08:25:05;;;;;;;6.43;2.58;;;;;;;15.05;31.08;101510.34;4994337;28;20057;-80
2021/03/08 08:27:33;;;;;;;5.88;1.70;;;;;;;13.44;33.36;101513.81;4975682;28;20115;-81
2021/03/08 08:30:00;;;;;;;5.25;1.95;;;;;;;14.57;31.98;101506.28;4975713;28;20043;-80
2021/03/08 08:32:47;;;;;;;3.45;2.13;;;;;;;15.72;30.07;101513.09;4977458;28;20085;-81
2021/03/08 08:35:33;;;;;;;3.85;1.90;;;;;;;13.52;33.71;101516.91;4993552;28;20149;-78
2021/03/08 08:38:06;;;;;;;5.03;1.80;;;;;;;14.33;30.25;101513.91;4987331;28;20069;-80
2021/03/08 08:40:35;;;;;;;3.22;1.70;;;;;;;14.38;30.60;101517.13;4995880;28;20042;-82
2021/03/08 08:43:19;;;;;;;4.78;1.42;;;;;;;14.73;28.66;101516.81;5007207;28;20050;-81
2021/03/08 08:45:48;;;;;;;4.20;1.95;;;;;;;14.46;29.44;101522.81;4981989;28;20114;-81
2021/03/08 08:48:15;;;;;;;7.10;1.75;;;;;;;15.81;27.23;101528.41;4981403;28;20412;-83
2021/03/08 08:50:51;;;;;;;3.95;1.13;;;;;;;16.34;25.41;101531.03;4995645;28;20129;-81
2021/03/08 08:53:30;;;;;;;;;;;;;;;13.46;28.45;101541.03;4983505;28;20074;-80
2021/03/08 08:55:57;;;;;;;3.83;1.48;;;;;;;14.90;27.58;101538.69;5005252;28;19925;-79
2021/03/08 08:58:29;;;;;;;3.35;1.10;;;;;;;13.52;28.04;101546.00;5000090;28;20054;-81
2021/03/08 09:04:00;;;;;;;4.20;1.55;;;;;;;13.59;28.20;101543.84;4992852;28;20057;-80
2021/03/08 09:06:56;;;;;;;4.30;1.13;;;;;;;14.14;26.80;101549.44;4988200;28;20077;-83
2021/03/08 09:09:47;;;;;;;4.38;1.00;;;;;;;13.50;27.38;101542.56;4977877;28;20061;-80
2021/03/08 09:12:37;;;;;;;2.55;0.82;;;;;;;12.80;27.39;101551.72;5007559;28;20102;-78
2021/03/08 09:15:07;;;;;;;6.15;1.20;;;;;;;12.15;28.64;101549.75;4981474;28;20062;-82
2021/03/08 09:17:40;;;;;;;3.83;1.23;;;;;;;12.51;29.41;101547.94;4971636;28;20121;-80
2021/03/08 09:20:07;;;;;;;3.00;1.10;;;;;;;13.11;27.99;101554.41;4990548;28;20101;-81
2021/03/08 09:22:35;;;;;;;2.22;1.00;;;;;;;12.75;28.63;101551.09;4986298;28;20130;-79
2021/03/08 09:25:08;;;;;;;3.60;0.90;;;;;;;9.48;31.09;101551.28;4970210;28;20086;-79
2021/03/08 09:28:10;;;;;;;4.63;0.98;;;;;;;8.45;31.68;101562.13;4984919;28;20057;-78
2021/03/08 09:30:46;;;;;;;3.65;1.00;;;;;;;7.59;33.99;101567.56;4992935;28;20051;-79
2021/03/08 09:33:14;;;;;;;3.13;1.52;;;;;;;6.78;36.76;101573.47;4980490;28;20050;-79
2021/03/08 09:35:46;;;;;;;2.53;0.90;;;;;;;6.07;38.69;101569.22;4984638;28;20070;-79
2021/03/08 09:38:25;;;;;;;5.93;0.98;;;;;;;4.98;40.79;101563.00;4990960;28;20038;-78
2021/03/08 09:40:59;;;;;;;3.92;1.10;;;;;;;4.40;42.69;101561.53;4988042;28;20110;-79
2021/03/08 09:43:35;;;;;;;2.72;1.00;;;;;;;4.00;43.30;101574.41;5008253;28;20042;-79
2021/03/08 09:46:13;;;;;;;2.22;0.88;;;;;;;4.51;43.71;101566.56;5002817;28;20058;-83
2021/03/08 09:48:52;;;;;;;6.70;0.80;;;;;;;4.03;40.65;101575.22;5008611;28;20098;-79
2021/03/08 09:51:20;;;;;;;3.40;1.00;;;;;;;3.88;41.06;101578.09;4995823;28;20046;-78
2021/03/08 09:53:55;;;;;;;2.63;0.77;;;;;;;3.85;42.58;101574.66;4991640;28;20065;-81
2021/03/08 09:56:24;;;;;;;2.97;1.15;;;;;;;3.98;41.14;101574.44;4975163;28;20041;-79
2021/03/08 09:59:02;;;;;;;1.73;0.70;;;;;;;4.40;41.92;101574.56;4956856;28;20924;-80
2021/03/08 10:01:29;;;;;;;2.53;0.80;;;;;;;4.00;39.40;101575.25;4971684;28;20057;-78
2021/03/08 10:07:10;;;;;;;1.67;1.00;;;;;;;3.88;40.37;101580.69;4965214;28;20129;-80
2021/03/08 10:09:37;;;;;;;2.13;0.77;;;;;;;4.13;39.25;101575.06;4967406;28;20620;-80
2021/03/08 10:12:05;;;;;;;2.55;1.05;;;;;;;4.05;38.53;101572.56;4979856;28;20062;-84
2021/03/08 10:14:32;;;;;;;1.73;0.65;;;;;;;4.05;38.25;101577.78;4963876;28;20157;-79
2021/03/08 10:17:03;;;;;;;1.73;0.70;;;;;;;3.41;39.31;101573.56;4984256;28;20129;-79
2021/03/08 10:19:32;;;;;;;1.45;0.50;;;;;;;3.64;39.54;101587.13;4987679;28;20114;-79
2021/03/08 10:22:03;;;;;;;1.88;0.77;;;;;;;3.65;36.64;101580.16;4964700;28;20115;-78
2021/03/08 10:24:38;;;;;;;4.50;0.95;;;;;;;3.65;37.66;101575.84;5005873;28;20073;-77
2021/03/08 10:27:13;;;;;;;2.85;0.90;;;;;;;3.84;37.90;101583.38;4988924;28;20061;-78
2021/03/08 10:29:40;;;;;;;5.25;0.60;;;;;;;3.59;40.26;101575.91;4994123;28;20038;-79
2021/03/08 10:32:08;;;;;;;5.00;1.02;;;;;;;3.64;39.89;101574.09;4979437;28;20070;-78
2021/03/08 10:34:36;;;;;;;2.50;0.50;;;;;;;3.60;39.72;101584.56;4994473;28;20070;-80
2021/03/08 10:37:18;;;;;;;6.40;0.80;;;;;;;3.78;38.03;101574.78;4958363;28;20113;-81
2021/03/08 10:39:47;;;;;;;2.08;0.82;;;;;;;3.67;36.35;101588.81;4985672;28;20102;-80
2021/03/08 10:42:19;;;;;;;2.15;0.60;;;;;;;3.55;36.84;101584.66;4982524;28;20109;-79
2021/03/08 10:44:45;;;;;;;4.00;1.00;;;;;;;3.53;36.90;101584.69;4967362;28;20054;-81
2021/03/08 10:47:16;;;;;;;2.97;0.60;;;;;;;3.58;37.46;101582.00;4981085;28;20122;-81
2021/03/08 10:49:53;;;;;;;3.20;0.50;;;;;;;3.68;38.16;101582.72;4995589;28;20055;-82
2021/03/08 10:52:22;;;;;;;4.03;0.77;;;;;;;3.64;37.66;101581.91;4987315;28;20051;-82
2021/03/08 10:54:49;;;;;;;5.85;0.95;;;;;;;3.80;37.79;101583.41;4995004;28;20038;-85
2021/03/08 10:57:16;;;;;;;3.08;1.00;;;;;;;3.53;37.93;101573.41;4974916;28;20054;-81
2021/03/08 10:59:52;;;;;;;4.97;1.08;;;;;;;3.58;38.43;101578.53;4998977;28;20046;-81
2021/03/08 11:02:19;;;;;;;;;;;;;;;3.54;38.73;101575.97;4989578;28;20046;-83
2021/03/08 11:04:48;;;;;;;2.45;1.00;;;;;;;3.73;38.05;101575.69;4989954;28;20316;-82
2021/03/08 11:07:31;;;;;;;5.13;0.90;;;;;;;3.79;38.08;101579.09;4984183;28;20462;-81
2021/03/08 11:09:58;;;;;;;6.70;0.93;;;;;;;3.63;39.45;101577.59;4969391;28;20050;-83
2021/03/08 11:12:25;;;;;;;2.92;0.90;;;;;;;3.93;38.25;101578.88;4975627;28;20042;-83
2021/03/08 11:14:57;;;;;;;2.75;0.80;;;;;;;3.81;38.70;101579.06;4976119;28;20073;-81
2021/03/08 11:17:40;;;;;;;6.47;0.90;;;;;;;3.47;39.31;101586.53;4962156;28;20109;-82
2021/03/08 11:20:21;;;;;;;4.35;0.90;;;;;;;3.79;40.00;101581.69;4999584;28;20040;-82
2021/03/08 11:23:40;;;;;;;3.95;0.95;;;;;;;4.10;39.12;101588.13;5029189;28;20053;-81
2021/03/08 11:26:09;;;;;;;5.25;1.85;;;;;;;4.18;39.11;101581.06;4984768;28;20049;-81
2021/03/08 11:28:38;;;;;;;2.63;0.73;;;;;;;4.25;37.46;101580.94;4992012;28;20114;-82
2021/03/08 11:31:05;;;;;;;6.05;0.80;;;;;;;4.22;36.88;101570.53;4979606;28;20070;-81
2021/03/08 11:33:36;;;;;;;2.70;0.90;;;;;;;4.07;36.63;101574.28;4969332;28;20113;-81
2021/03/08 11:36:03;;;;;;;5.22;1.10;;;;;;;4.13;36.31;101572.47;4993518;28;20056;-81
2021/03/08 11:38:32;;;;;;;1.35;0.57;;;;;;;4.11;35.34;101563.81;4990205;28;20045;-83
2021/03/08 11:40:58;;;;;;;4.65;1.17;;;;;;;4.19;37.19;101567.16;4963000;28;20065;-83
2021/03/08 11:43:27;;;;;;;4.35;1.35;;;;;;;4.31;35.42;101556.50;4975643;28;20034;-82
2021/03/08 11:45:55;;;;;;;7.75;0.68;;;;;;;3.62;36.48;101562.00;4990371;28;20121;-81
2021/03/08 11:56:44;;;;;;;4.75;0.80;;;;;;;4.14;36.11;101563.75;5010075;28;20080;-80
2021/03/08 11:59:12;;;;;;;3.92;1.00;;;;;;;4.20;35.16;101561.91;4999310;28;20065;-80